• Join FlightAware (Why Join?)
  • Login
  • US Flag 
10:40PM EDT


 

Airport Tracker/Info


-or-


 

Live Flight TrackerFlight Track Log ✈ N934DL ✈ 04-May-2013 ✈ KATL - KMIA

Flight Track Log - Related Links

Times and Time Zones

All times are in EDT time to prevent confusion due to time zone crossing. See the N934DL flight status page for this flight to view local times or setup timezone preferences in your user account.

Time Position Orientation Groundspeed Altitude Reporting Facility
EDT Latitude Longitude Course Direction KTS MPH feet Rate Location/Type
11:40AM 33.6331 -84.3931 194° South 440 506 2,700  Level Atlanta Center
11:41AM 33.6167 -84.3167 104° East 217 250 5,700 2,640 Climbing Atlanta TRACON
11:42AM 33.5667 -84.2833 151° Southeast 245 282 8,400 1,500 Climbing Atlanta TRACON
11:44AM 33.4350 -84.2878 182° South 261 300 10,100 1,380 Climbing Atlanta Center
11:45AM 33.3514 -84.3100 193° South 291 335 12,500 2,400 Climbing Atlanta Center
11:46AM 33.0608 -84.3802 194° South  Level FlightAware Approximate
11:46AM 33.2594 -84.3369 194° South 310 357 15,000  Level Atlanta Center
11:47AM 33.1675 -84.3664 195° South 326 375 16,900 1,620 Climbing Atlanta Center
11:48AM 33.0758 -84.3908 193° South 340 391 18,300 1,680 Climbing Atlanta Center
11:49AM 32.9775 -84.4128 191° South 357 411 20,300 1,620 Climbing Atlanta Center
11:50AM 32.8731 -84.4147 181° South 363 418 21,600 960 Climbing Atlanta Center
11:51AM 32.7750 -84.4069 176° South 375 432 22,300 840 Climbing Atlanta Center
11:52AM 32.6625 -84.4064 180° South 394 453 23,300 1,140 Climbing Atlanta Center
11:53AM 32.5414 -84.4058 180° South 417 480 24,600 1,500 Climbing Atlanta Center
11:54AM 32.4181 -84.4056 180° South 432 497 26,400 1,680 Climbing Atlanta Center
11:55AM 32.3014 -84.4025 179° South 438 504 28,000 1,500 Climbing Atlanta Center
11:56AM 32.1803 -84.3997 179° South 438 504 29,400 1,200 Climbing Atlanta Center
11:57AM 32.0550 -84.3967 179° South 438 504 30,400 1,140 Climbing Atlanta Center
11:58AM 31.9447 -84.3933 179° South 440 506 31,400 1,260 Climbing Jacksonville Center
11:59AM 31.8342 -84.3917 179° South 419 482 32,600 960 Climbing Jacksonville Center
12:00PM 31.7150 -84.3922 180° South 419 482 33,400 660 Climbing Jacksonville Center
12:01PM 31.5961 -84.3878 178° South 424 488 34,000 540 Climbing Jacksonville Center
12:02PM 31.4733 -84.3589 169° South 432 497 34,500 480 Climbing Jacksonville Center
12:03PM 31.3547 -84.3061 159° South 442 509 35,000 240 Climbing Jacksonville Center
12:04PM 31.2364 -84.2533 159° South 452 520 35,000  Level Jacksonville Center
12:05PM 31.1158 -84.2031 160° South 457 526 35,000  Level Jacksonville Center
12:06PM 31.0056 -84.1603 162° South 464 534 35,000  Level Jacksonville Center
12:07PM 30.8850 -84.1103 160° South 464 534 35,000  Level Jacksonville Center
12:08PM 30.7686 -84.0603 160° South 464 534 35,000  Level Jacksonville Center
12:09PM 30.6458 -84.0106 161° South 464 534 35,000  Level Jacksonville Center
12:10PM 30.5167 -83.9608 162° South 459 528 35,000  Level Jacksonville Center
12:11PM 30.3939 -83.9114 161° South 454 522 35,000  Level Jacksonville Center
12:12PM 30.2753 -83.8594 159° South 460 529 35,000  Level Jacksonville Center
12:13PM 30.1525 -83.8125 162° South 460 529 35,000  Level Jacksonville Center
12:14PM 30.0317 -83.7636 161° South 460 529 35,000  Level Jacksonville Center
12:15PM 29.9089 -83.7144 161° South 460 529 35,000  Level Jacksonville Center
12:16PM 29.7881 -83.6656 161° South 460 529 35,000  Level Jacksonville Center
12:17PM 29.6653 -83.6192 162° South 460 529 35,000  Level Jacksonville Center
12:18PM 29.5425 -83.5681 160° South 465 535 35,000  Level Jacksonville Center
12:19PM 29.4194 -83.5197 161° South 465 535 35,000  Level Jacksonville Center
12:20PM 29.3089 -83.4736 160° South 465 535 35,000  Level Jacksonville Center
12:21PM 29.1861 -83.4253 161° South 465 535 35,000  Level Jacksonville Center
12:22PM 29.0631 -83.3772 161° South 465 535 35,000  Level Jacksonville Center
12:23PM 28.9422 -83.3267 160° South 460 529 35,000  Level Jacksonville Center
12:24PM 28.8236 -83.2575 153° Southeast 470 541 35,000  Level Jacksonville Center
12:25PM 28.7047 -83.1883 153° Southeast 475 547 35,000  Level Jacksonville Center
12:26PM 28.5881 -83.1194 153° Southeast 475 547 35,000  Level Jacksonville Center
12:29PM 28.2764 -82.9353 152° Southeast 480 552 35,000  Level Miami Center
12:30PM 28.1603 -82.8678 153° Southeast 475 547 35,000  Level Miami Center
12:31PM 28.0261 -82.7833 151° Southeast 475 547 35,000  Level Miami Center
12:32PM 27.9097 -82.7231 155° Southeast 487 560 35,000  Level Miami Center
12:33PM 27.7867 -82.6675 158° South 478 550 35,000  Level Miami Center
12:34PM 27.6847 -82.6083 153° Southeast 462 532 35,000  Level Miami Center
12:35PM 27.5522 -82.5361 154° Southeast 479 551 35,000  Level Miami Center
12:36PM 27.4336 -82.4719 154° Southeast 484 557 35,000  Level Miami Center
12:37PM 27.3225 -82.3800 144° Southeast 484 557 35,000 -180 Level Miami Center
12:38PM 27.2197 -82.2772 138° Southeast 499 574 34,700 -840 Descending Miami Center
12:39PM 27.1131 -82.1719 139° Southeast 499 574 33,400 -1,260 Descending Miami Center
12:40PM 27.0125 -82.0717 138° Southeast 493 567 32,200 -1,500 Descending Miami Center
12:41PM 26.9094 -81.9717 139° Southeast 493 567 30,400 -1,560 Descending Miami Center
12:42PM 26.8047 -81.8669 138° Southeast 493 567 29,100 -1,260 Descending Miami Center
12:43PM 26.6994 -81.7650 139° Southeast 493 567 27,900 -1,200 Descending Miami Center
12:44PM 26.5986 -81.6631 138° Southeast 498 573 26,800 -1,080 Descending Miami Center
12:45PM 26.5036 -81.5664 138° Southeast 477 549 25,800 -1,080 Descending Miami Center
12:46PM 26.4025 -81.4675 139° Southeast 477 549 24,700 -1,200 Descending Miami Center
12:47PM 26.3072 -81.3733 138° Southeast 470 541 23,400 -1,500 Descending Miami Center
12:48PM 26.2139 -81.2794 138° Southeast 459 528 21,800 -1,800 Descending Miami Center
12:49PM 26.1228 -81.1906 139° Southeast 454 522 19,800 -2,160 Descending Miami Center
12:50PM 26.0314 -81.1042 140° Southeast 422 486 17,500 -1,920 Descending Miami Center
12:51PM 25.9481 -81.0181 137° Southeast 430 495 16,000 -1,080 Descending Miami Center
12:51PM 25.9156 -80.9914 144° Southeast 407 468 16,100  Climbing Miami Center
12:52PM 25.8756 -80.9253 124° Southeast 409 471 16,000 -120 Descending Miami Center
12:52PM 25.8542 -80.8692 113° Southeast 417 480 16,000  Level Miami Center
12:53PM 25.8392 -80.8042 104° East 394 453 16,000  Level Miami Center
12:53PM 25.8219 -80.7481 109° East 412 474 16,000 -840 Level Miami Center
12:54PM 25.8069 -80.6831 104° East 399 459 15,200 -1,800 Descending Miami Center
12:54PM 25.7894 -80.6250 108° East 403 464 14,200 -1,200 Descending Miami Center
12:55PM 25.7764 -80.5644 103° East 404 465 14,000 -1,140 Descending Miami Center
12:55PM 25.7550 -80.5017 111° Southeast 392 451 13,100 -1,020 Descending Miami Center
12:56PM 25.7458 -80.4483 101° East 399 459 13,000 -1,020 Descending Miami Center
12:56PM 25.7267 -80.3856 109° East 393 452 12,100 -1,500 Descending Miami Center
12:57PM 25.7131 -80.3344 106° East 392 451 11,500 -1,020 Descending Miami Center
12:57PM 25.6956 -80.2878 113° Southeast 351 404 11,200 -900 Descending Miami Center
12:58PM 25.6717 -80.2386 118° Southeast 367 422 10,600 -1,800 Descending Miami Center
12:58PM 25.6392 -80.1917 128° Southeast 310 357 9,200 -2,100 Descending Miami Center
12:59PM 25.6294 -80.1661 113° Southeast 325 374 8,500 -2,340 Descending Miami Center
12:59PM 25.6011 -80.1214 125° Southeast 302 348 7,100 -2,280 Descending Miami Center
01:00PM 25.6403 -80.0489 59° Northeast 260 299 4,800 -1,620 Descending Miami Center
01:01PM 25.6833 -80.0822 325° Northwest 204 235 3,800 -1,020 Descending Miami Center
01:02PM 25.7094 -80.1336 299° West 211 243 3,000 -960 Descending Miami Center
01:03PM 25.7394 -80.1922 300° West 169 194 1,900 -900 Descending Miami Center
01:04PM 25.7614 -80.2367 299° West 151 174 1,000 -780 Descending Miami Center
01:05PM 25.7775 -80.2692 299° West 141 162 400 -720 Descending Miami Center